Pagrindinis puslapis
METAR-TAF:

METAR-TAF

Oro uostai :

Skaka, Saudo Arabija

platuma: 29-47N, ilguma: 040-06E, Aukštis: 689 m

Dabartinis oras

Ataskaita buvo paskelbta 30 minutes, ne 08:00 UTC
Vėjas 5 kt iš Pietų/Pietryčių
Temperatūra 31°C
Drėgmė 15%
Slėgis 1021 hPa
Matomumas 10 km arba daugiau
nėra debesų žemiau 1500 m ir nėra kamuolinių lietaus debesų

METAR: OESK 180800Z 16005KT CAVOK 31/01 Q1021

Laikas: 11:30 (08:30 UTC)

Prognozė

Ataskaita buvo paskelbta 9 valandos ir 30 minutes, ne 23:00 UTC
Prognozė galioja nuo 18 metu 00 UTC su 19 metu 06 UTC
Vėjas 3 kt nuo kintamojo kryptimis
Matomumas: 7000 m
Išsisklaidę debesys ne aukštis 4000 ft
Išsisklaidę debesys ne aukštis 10000 ft
Laikinai
nuo 18 metu 00 UTC su 18 metu 06 UTC
Mažai debesys ne aukštis 3500 ft, Liūtiniai kamuoliniai debesys.
Su prošvaistėmis ne aukštis 4000 ft
Tapsmas
nuo 18 metu 07 UTC su 18 metu 09 UTC
Vėjas 12 kt iš Pietų/Pietvakarių

TAF: OESK 172300Z 1800/1906 VRB03KT 7000 SCT040 SCT100 TEMPO 1800/1806 FEW035CB BKN040 BECMG 1807/1809 20012KT

Orai ataskaitas ir orų prognozės (METAR, TAF).

turimą stotys yra geltonos ir raudonos taškus žemėlapyje.

Perkelti pele per norėdami pamatyti stoties vardą.

Tada spustelėkite, norėdami matyti oro stebėjimo ir prognozės.

Norėdami pakeisti žemėlapį: spustelėkite ant žalios mygtukų su juodo kryžiaus žemyn,; žalią mygtuką su brūkšneliu, jei norite nutolinti; arba žalių rodyklių gretimoms žemėlapius.


METAR-TAF: